Startpagina
METAR-TAF:

METAR-TAF

Vliegvelden :

Productieplatform

Hoorn-a, Nederland

breedte: 52-55-05N, lengte: 4-09-01E, hoogte: 41 m

Actueel weer

Dit bericht is 28 minuten geleden gemaakt, om 21:55 UTC
Wind 13 kt uit het noorden
Temperatuur 13°C
Vochtigheid 94%
Druk 1024 hPa
Zicht 10 km of meer

METAR: EHQE 242155Z AUTO 35013KT 9999 BKN007/// OVC008/// 13/12 Q1024 W///H///

Tijdstip: 00:23 (22:23 UTC)


TAF: ontbreekt

Waarnemingen en weersverwachtingen van meer dan 4000 vliegvelden (METAR en TAF).

De beschikbare stations zijn de gele en rode punten op de kaart.

Ga met uw muis naar het station om de naam te zien.

Klik dan om waarnemingen en weersverwachtingen te zien.

kaart wijzigen: klik op de groene knoppen met een zwart kruis om in te zoomen, op de groene knop met een streepje om uit te zoomen of op de groene pijlen voor aangrenzende kaarten.


METAR-TAF: